Time;durP1;ratioP1;P1;durP2;ratioP2;P2;SDS_P1;SDS_P2;PMS_P1;PMS_P2;Temp;Humidity;BMP_temperature;BMP_pressure;BME280_temperature;BME280_humidity;BME280_pressure;Samples;Min_cycle;Max_cycle;Signal;HPM_P1;HPM_P2
2023/03/17 00:00:32;;;;;;;;;;;;;;;28.62;23.73;100869.72;5057396;28;1101;-20
2023/03/17 00:02:58;;;;;;;;;;;;;;;29.62;21.89;100884.47;5057421;28;1170;-19
2023/03/17 00:05:24;;;;;;;;;;;;;;;29.52;21.82;100866.66;5056574;28;1918;-21
2023/03/17 00:07:51;;;;;;;;;;;;;;;29.80;21.62;100867.69;5056189;28;1095;-19
2023/03/17 00:10:21;;;;;;;;;;;;;;;29.26;21.69;100878.13;5057448;28;1217;-20
2023/03/17 00:12:47;;;;;;;;;;;;;;;27.86;23.76;100861.66;5057490;28;1070;-19
2023/03/17 00:15:13;;;;;;;;;;;;;;;29.17;22.46;100855.72;5057392;28;1074;-19
2023/03/17 00:17:39;;;;;;;;;;;;;;;29.81;21.63;100869.41;5056885;28;1094;-20
2023/03/17 00:20:05;;;;;;;;;;;;;;;29.94;21.46;100866.78;5057085;28;1077;-19
2023/03/17 00:22:30;;;;;;;;;;;;;;;30.00;21.26;100866.97;5056909;28;1058;-20
2023/03/17 00:24:56;;;;;;;;;;;;;;;29.37;22.03;100868.59;5056956;28;1996;-19
2023/03/17 00:27:22;;;;;;;;;;;;;;;28.43;23.14;100856.59;5056774;28;1116;-20
2023/03/17 00:29:49;;;;;;;;;;;;;;;29.21;22.54;100859.75;5055867;28;1015;-19
2023/03/17 00:32:15;;;;;;;;;;;;;;;29.12;22.54;100864.44;5056667;28;1115;-19
2023/03/17 00:34:41;;;;;;;;;;;;;;;29.45;22.04;100854.91;5055685;28;1118;-19
2023/03/17 00:37:09;;;;;;;;;;;;;;;29.85;21.51;100862.53;5055453;28;1201;-19
2023/03/17 00:39:35;;;;;;;;;;;;;;;28.86;22.92;100860.44;5055624;28;1087;-19
2023/03/17 00:42:01;;;;;;;;;;;;;;;28.04;24.04;100858.59;5056714;28;1090;-19
2023/03/17 00:44:26;;;;;;;;;;;;;;;28.73;22.90;100859.25;5056781;28;1914;-19
2023/03/17 00:46:52;;;;;;;;;;;;;;;28.96;22.68;100870.94;5056787;28;999;-19
2023/03/17 00:49:21;;;;;;;;;;;;;;;29.52;22.05;100863.94;5055520;28;1168;-19
2023/03/17 00:51:47;;;;;;;;;;;;;;;29.50;21.62;100868.72;5056698;28;1067;-19
2023/03/17 00:54:14;;;;;;;;;;;;;;;28.07;23.96;100869.03;5055082;28;1309;-19
2023/03/17 00:56:40;;;;;;;;;;;;;;;29.00;22.77;100872.25;5056239;28;1130;-19
2023/03/17 00:59:19;;;;;;;;;;;;;;;29.62;22.20;100876.34;5056355;28;1071;-19
2023/03/17 01:01:45;;;;;;;;;;;;;;;29.31;22.35;100875.66;5054963;28;1493;-20
2023/03/17 01:04:11;;;;;;;;;;;;;;;29.73;21.95;100872.25;5056614;28;1975;-19
2023/03/17 01:06:36;;;;;;;;;;;;;;;28.71;23.12;100874.00;5056275;28;1182;-19
2023/03/17 01:09:02;;;;;;;;;;;;;;;28.42;23.58;100879.28;5056278;28;1150;-19
2023/03/17 01:11:29;;;;;;;;;;;;;;;29.34;22.30;100884.22;5056296;28;1050;-19
2023/03/17 01:13:55;;;;;;;;;;;;;;;29.21;22.56;100882.22;5049983;28;1451;-19
2023/03/17 01:16:21;;;;;;;;;;;;;;;29.83;21.93;100880.84;5050834;28;1010;-19
2023/03/17 01:18:48;;;;;;;;;;;;;;;28.90;22.75;100883.38;5054636;28;1257;-19
2023/03/17 01:21:14;;;;;;;;;;;;;;;27.79;24.32;100882.34;5056098;28;1107;-19
2023/03/17 01:23:40;;;;;;;;;;;;;;;28.93;23.04;100898.38;5055987;28;1988;-19
2023/03/17 01:26:05;;;;;;;;;;;;;;;29.21;22.62;100884.13;5055890;28;1153;-19
2023/03/17 01:28:31;;;;;;;;;;;;;;;29.69;22.09;100885.38;5056116;28;1178;-19
2023/03/17 01:30:57;;;;;;;;;;;;;;;29.12;22.15;100885.28;5055892;28;1054;-19
2023/03/17 01:33:23;;;;;;;;;;;;;;;27.81;24.24;100891.09;5055996;28;1226;-19
2023/03/17 01:35:48;;;;;;;;;;;;;;;29.18;22.76;100896.16;5054907;28;1110;-19
2023/03/17 01:38:14;;;;;;;;;;;;;;;29.18;22.81;100890.75;5055599;28;1054;-19
2023/03/17 01:40:44;;;;;;;;;;;;;;;29.44;22.55;100897.47;5054893;28;1340;-19
2023/03/17 01:43:09;;;;;;;;;;;;;;;29.66;21.58;100894.72;5056261;28;1910;-20
2023/03/17 01:45:53;;;;;;;;;;;;;;;28.11;24.09;100897.34;5060155;28;1099;-19
2023/03/17 01:48:19;;;;;;;;;;;;;;;28.99;23.17;100894.94;5049765;28;1031;-19
2023/03/17 01:50:44;;;;;;;;;;;;;;;29.04;22.87;100899.78;5058724;28;1130;-19
2023/03/17 01:53:10;;;;;;;;;;;;;;;29.61;22.07;100894.50;5058621;28;1059;-19
2023/03/17 01:55:36;;;;;;;;;;;;;;;29.88;21.73;100904.69;5056973;28;1429;-19
2023/03/17 01:58:01;;;;;;;;;;;;;;;29.06;22.49;100898.53;5059465;28;1140;-19
2023/03/17 02:00:27;;;;;;;;;;;;;;;27.99;23.96;100904.25;5041559;28;1160;-19
2023/03/17 02:02:54;;;;;;;;;;;;;;;28.97;22.97;100902.41;5060092;28;1062;-19
2023/03/17 02:05:20;;;;;;;;;;;;;;;29.37;22.45;100901.97;5059660;28;1902;-19
2023/03/17 02:07:46;;;;;;;;;;;;;;;29.49;22.18;100902.28;5059672;28;839;-19
2023/03/17 02:10:13;;;;;;;;;;;;;;;29.53;22.02;100911.69;5058784;28;1112;-19
2023/03/17 02:12:39;;;;;;;;;;;;;;;27.88;24.17;100913.66;5059490;28;1066;-19
2023/03/17 02:15:05;;;;;;;;;;;;;;;29.05;22.94;100913.13;5041663;28;1201;-18
2023/03/17 02:17:30;;;;;;;;;;;;;;;29.26;22.59;100914.16;5075192;28;1086;-19
2023/03/17 02:20:07;;;;;;;;;;;;;;;29.59;22.13;100915.53;5059143;28;1062;-19
2023/03/17 02:22:33;;;;;;;;;;;;;;;29.64;21.72;100914.94;5058649;28;1281;-19
2023/03/17 02:24:59;;;;;;;;;;;;;;;28.32;23.46;100914.72;5059036;28;1973;-19
2023/03/17 02:27:27;;;;;;;;;;;;;;;29.16;22.58;100925.31;5059689;28;1155;-19
2023/03/17 02:29:52;;;;;;;;;;;;;;;29.20;22.47;100915.78;5058029;28;1146;-19
2023/03/17 02:32:18;;;;;;;;;;;;;;;29.51;22.36;100912.94;5059112;28;920;-19
2023/03/17 02:34:44;;;;;;;;;;;;;;;30.04;21.54;100938.81;5059024;28;1038;-19
2023/03/17 02:37:09;;;;;;;;;;;;;;;29.08;22.40;100933.56;5058005;28;1130;-19
2023/03/17 02:39:35;;;;;;;;;;;;;;;28.15;23.74;100941.09;5058825;28;1166;-19
2023/03/17 02:42:01;;;;;;;;;;;;;;;29.14;22.64;100943.66;5058604;28;1042;-18
2023/03/17 02:44:26;;;;;;;;;;;;;;;29.32;22.17;100948.63;5057274;28;1984;-19
2023/03/17 02:46:52;;;;;;;;;;;;;;;29.81;21.73;100950.75;5059087;28;1070;-19
2023/03/17 02:49:18;;;;;;;;;;;;;;;29.61;21.38;100948.72;5058839;28;1059;-19
2023/03/17 02:51:44;;;;;;;;;;;;;;;28.14;23.88;100947.53;5057880;28;1120;-19
2023/03/17 02:54:09;;;;;;;;;;;;;;;29.10;22.66;100947.75;5058845;28;996;-19
2023/03/17 02:56:35;;;;;;;;;;;;;;;29.27;22.38;100955.63;5058385;28;848;-18
2023/03/17 02:59:01;;;;;;;;;;;;;;;29.50;22.13;100949.19;5058434;28;1082;-19
2023/03/17 03:01:26;;;;;;;;;;;;;;;29.91;21.67;100955.81;5058563;28;1079;-19
2023/03/17 03:03:52;;;;;;;;;;;;;;;29.25;22.19;100952.28;5058570;28;1902;-19
2023/03/17 03:06:17;;;;;;;;;;;;;;;27.93;23.70;100959.06;5058967;28;1038;-19
2023/03/17 03:08:43;;;;;;;;;;;;;;;29.11;22.50;100963.00;5058164;28;1050;-19
2023/03/17 03:11:08;;;;;;;;;;;;;;;29.51;22.37;100953.59;5058563;28;1117;-19
2023/03/17 03:13:35;;;;;;;;;;;;;;;29.85;21.90;100949.31;5058147;28;1105;-28
2023/03/17 03:16:01;;;;;;;;;;;;;;;29.49;21.75;100956.50;5058759;28;1122;-20
2023/03/17 03:18:26;;;;;;;;;;;;;;;27.97;24.02;100954.97;5058642;28;1067;-19
2023/03/17 03:20:52;;;;;;;;;;;;;;;29.20;22.40;100945.59;5057660;28;877;-19
2023/03/17 03:23:17;;;;;;;;;;;;;;;29.24;22.56;100951.47;5058486;28;1906;-19
2023/03/17 03:25:43;;;;;;;;;;;;;;;29.61;22.08;100956.84;5058134;28;1106;-19
2023/03/17 03:28:08;;;;;;;;;;;;;;;30.02;21.59;100962.56;5058108;28;1126;-19
2023/03/17 03:30:34;;;;;;;;;;;;;;;28.52;23.44;100951.19;5058262;28;1166;-19
2023/03/17 03:33:00;;;;;;;;;;;;;;;28.48;23.72;100970.53;5057552;28;943;-19
2023/03/17 03:35:26;;;;;;;;;;;;;;;28.82;23.00;100967.41;5058154;28;1046;-19
2023/03/17 03:37:52;;;;;;;;;;;;;;;29.19;22.53;100962.88;5058096;28;1151;-19
2023/03/17 03:40:17;;;;;;;;;;;;;;;29.72;21.91;100970.88;5057777;28;1051;-19
2023/03/17 03:42:43;;;;;;;;;;;;;;;28.78;20.90;100956.13;5056127;28;1130;-19
2023/03/17 03:45:08;;;;;;;;;;;;;;;27.29;21.76;100966.47;5058024;28;1971;-19
2023/03/17 03:47:34;;;;;;;;;;;;;;;28.72;21.25;100979.38;5053614;28;1443;-19
2023/03/17 03:49:59;;;;;;;;;;;;;;;29.33;19.91;100968.41;5057291;28;1023;-19
2023/03/17 03:52:25;;;;;;;;;;;;;;;29.27;20.25;100980.03;5051258;28;1138;-19
2023/03/17 03:54:50;;;;;;;;;;;;;;;29.54;19.64;100983.00;5043240;28;1280;-19
2023/03/17 03:57:16;;;;;;;;;;;;;;;29.74;19.42;100985.94;5047957;28;1336;-19
2023/03/17 03:59:42;;;;;;;;;;;;;;;29.81;19.15;101000.38;5042842;28;1305;-19
2023/03/17 04:02:07;;;;;;;;;;;;;;;26.93;22.32;101000.19;5044889;28;1610;-19
2023/03/17 04:04:33;;;;;;;;;;;;;;;26.90;22.46;100987.91;5043158;28;1910;-19
2023/03/17 04:06:58;;;;;;;;;;;;;;;28.91;20.08;101001.47;5046052;28;1388;-19
2023/03/17 04:09:24;;;;;;;;;;;;;;;29.48;19.36;101009.00;5045329;28;1359;-19
2023/03/17 04:11:50;;;;;;;;;;;;;;;29.67;19.03;101007.56;5040482;28;1356;-19
2023/03/17 04:14:17;;;;;;;;;;;;;;;29.80;18.84;101014.13;5055735;28;1133;-19
2023/03/17 04:16:42;;;;;;;;;;;;;;;29.56;18.91;101016.19;5057122;28;1117;-19
2023/03/17 04:19:08;;;;;;;;;;;;;;;26.65;21.84;101025.78;5057718;28;1258;-19
2023/03/17 04:21:34;;;;;;;;;;;;;;;26.66;22.46;101027.47;5057094;28;996;-19
2023/03/17 04:23:59;;;;;;;;;;;;;;;28.70;20.20;101030.16;5056735;28;1975;-19
2023/03/17 04:26:25;;;;;;;;;;;;;;;29.01;19.63;101030.16;5056877;28;1066;-18
2023/03/17 04:28:51;;;;;;;;;;;;;;;29.29;19.46;101033.00;5057190;28;1125;-18
2023/03/17 04:31:16;;;;;;;;;;;;;;;29.62;18.93;101036.28;5056996;28;1170;-19
2023/03/17 04:33:42;;;;;;;;;;;;;;;29.72;18.96;101036.78;5056715;28;888;-19
2023/03/17 04:36:09;;;;;;;;;;;;;;;27.19;21.82;101045.88;5056947;28;1193;-19
2023/03/17 04:38:35;;;;;;;;;;;;;;;26.73;22.33;101036.56;5055543;28;1274;-18
2023/03/17 04:41:01;;;;;;;;;;;;;;;28.79;20.00;101043.59;5056650;28;1646;-19
2023/03/17 04:43:26;;;;;;;;;;;;;;;29.23;19.74;101047.28;5056476;28;1913;-19
2023/03/17 04:45:52;;;;;;;;;;;;;;;29.47;19.30;101045.28;5056465;28;897;-19
2023/03/17 04:48:17;;;;;;;;;;;;;;;29.62;19.06;101049.81;5056742;28;1245;-19
2023/03/17 04:50:44;;;;;;;;;;;;;;;29.78;18.82;101051.47;5056728;28;1229;-19
2023/03/17 04:53:09;;;;;;;;;;;;;;;26.75;22.20;101056.13;5056434;28;1206;-18
2023/03/17 04:55:35;;;;;;;;;;;;;;;25.82;20.66;101104.00;5055909;28;1113;-19
2023/03/17 04:58:01;;;;;;;;;;;;;;;28.17;19.40;101077.00;5056162;28;995;-19
2023/03/17 05:00:26;;;;;;;;;;;;;;;28.73;17.08;101086.63;5056563;28;1119;-19
2023/03/17 05:02:52;;;;;;;;;;;;;;;28.90;17.16;101070.19;5056562;28;1127;-19
2023/03/17 05:05:17;;;;;;;;;;;;;;;29.13;17.08;101079.28;5056406;28;1913;-20
2023/03/17 05:07:43;;;;;;;;;;;;;;;29.28;17.07;101073.84;5055227;28;919;-19
2023/03/17 05:10:10;;;;;;;;;;;;;;;27.40;19.68;101071.41;5056157;28;892;-19
2023/03/17 05:12:35;;;;;;;;;;;;;;;26.43;21.29;101075.91;5056362;28;1198;-19
2023/03/17 05:15:01;;;;;;;;;;;;;;;28.02;19.24;101078.81;5056301;28;1082;-19
2023/03/17 05:17:26;;;;;;;;;;;;;;;28.95;18.42;101081.31;5055948;28;1034;-19
2023/03/17 05:19:53;;;;;;;;;;;;;;;29.57;17.84;101070.22;5056492;28;1155;-18
2023/03/17 05:22:18;;;;;;;;;;;;;;;29.40;18.09;101079.59;5055485;28;1119;-18
2023/03/17 05:24:44;;;;;;;;;;;;;;;29.54;17.90;101086.84;5055207;28;1914;-19
2023/03/17 05:27:09;;;;;;;;;;;;;;;28.00;19.60;101081.69;5055924;28;1202;-19
2023/03/17 05:29:35;;;;;;;;;;;;;;;26.33;21.37;101086.88;5056222;28;1097;-19
2023/03/17 05:32:00;;;;;;;;;;;;;;;27.18;20.89;100997.41;5055256;28;1139;-18
2023/03/17 05:34:26;;;;;;;;;;;;;;;28.68;19.58;101093.63;5041141;28;910;-19
2023/03/17 05:36:51;;;;;;;;;;;;;;;29.13;19.11;101093.66;5051320;28;1261;-19
2023/03/17 05:39:17;;;;;;;;;;;;;;;29.26;19.01;101092.97;5055647;28;1165;-19
2023/03/17 05:41:42;;;;;;;;;;;;;;;28.91;19.18;101101.66;5055656;28;1127;-42
2023/03/17 05:44:08;;;;;;;;;;;;;;;28.28;19.94;101101.94;5055429;28;1961;-42
2023/03/17 05:46:33;;;;;;;;;;;;;;;26.59;21.66;101115.53;5055342;28;945;-42
2023/03/17 05:48:59;;;;;;;;;;;;;;;26.78;21.86;101117.84;5056044;28;1121;-43
2023/03/17 05:51:26;;;;;;;;;;;;;;;28.57;20.01;101125.53;5055772;28;1098;-42
2023/03/17 05:53:51;;;;;;;;;;;;;;;28.92;19.54;101121.47;5055588;28;1040;-42
2023/03/17 05:56:17;;;;;;;;;;;;;;;29.34;18.96;101122.66;5055287;28;1364;-40
2023/03/17 05:58:43;;;;;;;;;;;;;;;29.54;18.82;101132.94;5055402;28;1118;-42
2023/03/17 06:01:08;;;;;;;;;;;;;;;29.63;18.71;101130.97;5055230;28;1170;-41
2023/03/17 06:03:37;;;;;;;;;;;;;;;27.16;21.17;101137.19;5042414;28;1906;-42
2023/03/17 06:06:02;;;;;;;;;;;;;;;26.15;22.94;101133.69;5055180;28;1138;-41
2023/03/17 06:08:28;;;;;;;;;;;;;;;28.47;20.11;101136.63;5055239;28;1071;-42
2023/03/17 06:10:53;;;;;;;;;;;;;;;29.26;19.35;101140.91;5041022;28;1250;-41
2023/03/17 06:13:19;;;;;;;;;;;;;;;29.45;19.01;101162.00;5052867;28;1333;-42
2023/03/17 06:15:44;;;;;;;;;;;;;;;29.45;19.16;101163.88;5055296;28;1135;-19
2023/03/17 06:18:10;;;;;;;;;;;;;;;29.31;19.06;101162.88;5051306;28;1063;-19
2023/03/17 06:20:36;;;;;;;;;;;;;;;28.14;20.44;101168.47;5055010;28;1269;-19
2023/03/17 06:23:01;;;;;;;;;;;;;;;27.21;21.70;101176.16;5055294;28;1039;-19
2023/03/17 06:25:27;;;;;;;;;;;;;;;28.84;20.08;101174.66;5055227;28;1989;-19
2023/03/17 06:27:54;;;;;;;;;;;;;;;28.96;20.35;101187.78;5054937;28;1090;-19
2023/03/17 06:30:21;;;;;;;;;;;;;;;28.53;20.56;101194.56;5056895;28;1062;-19
2023/03/17 06:32:47;;;;;;;;;;;;;;;27.87;21.13;101196.69;5059062;28;1083;-19
2023/03/17 06:35:12;;;;;;;;;;;;;;;28.50;21.04;101186.81;5059133;28;1174;-19
2023/03/17 06:37:38;;;;;;;;;;;;;;;28.29;21.35;101192.88;5058947;28;1106;-19
2023/03/17 06:40:04;;;;;;;;;;;;;;;28.83;20.47;101200.06;5059232;28;1110;-19
2023/03/17 06:42:30;;;;;;;;;;;;;;;29.26;20.15;101197.81;5058537;28;1131;-19
2023/03/17 06:44:55;;;;;;;;;;;;;;;28.13;21.28;101183.03;5058758;28;1980;-18
2023/03/17 06:47:21;;;;;;;;;;;;;;;28.17;21.62;101203.28;5058448;28;1174;-18
2023/03/17 06:49:47;;;;;;;;;;;;;;;28.41;21.27;101196.03;5058907;28;1030;-19
2023/03/17 06:52:13;;;;;;;;;;;;;;;28.84;20.87;101201.75;5058646;28;1130;-19
2023/03/17 06:54:38;;;;;;;;;;;;;;;28.69;20.96;101207.16;5058753;28;1234;-19
2023/03/17 06:57:04;;;;;;;;;;;;;;;28.02;21.96;101200.50;5090401;28;1110;-19
2023/03/17 06:59:29;;;;;;;;;;;;;;;28.51;21.30;101207.44;5058178;28;1111;-19
2023/03/17 07:01:55;;;;;;;;;;;;;;;28.70;20.89;101216.09;5058441;28;1216;-19
2023/03/17 07:04:20;;;;;;;;;;;;;;;29.31;20.67;101209.75;5058252;28;1906;-19
2023/03/17 07:06:46;;;;;;;;;;;;;;;28.72;20.10;101198.66;5058467;28;1173;-18
2023/03/17 07:09:11;;;;;;;;;;;;;;;27.89;21.32;101196.53;5057838;28;999;-19
2023/03/17 07:11:37;;;;;;;;;;;;;;;28.30;21.45;101205.38;5057174;28;1068;-19
2023/03/17 07:14:04;;;;;;;;;;;;;;;28.58;21.23;101203.00;5040181;28;1140;-19
2023/03/17 07:16:31;;;;;;;;;;;;;;;28.96;20.78;101201.31;5043629;28;1227;-19
2023/03/17 07:18:57;;;;;;;;;;;;;;;28.78;20.49;101215.19;5055648;28;1027;-19
2023/03/17 07:21:22;;;;;;;;;;;;;;;28.03;21.88;101219.25;5058200;28;1135;-19
2023/03/17 07:23:48;;;;;;;;;;;;;;;29.01;20.63;101196.19;5058049;28;1983;-19
2023/03/17 07:26:13;;;;;;;;;;;;;;;28.92;20.82;101208.13;5057939;28;1107;-19
2023/03/17 07:28:39;;;;;;;;;;;;;;;29.55;20.16;101207.78;5043697;28;1115;-20
2023/03/17 07:31:07;;;;;;;;;;;;;;;28.66;21.12;101202.06;5057878;28;1050;-19
2023/03/17 07:33:33;;;;;;;;;;;;;;;28.27;21.45;101193.06;5057663;28;1026;-19
2023/03/17 07:35:58;;;;;;;;;;;;;;;28.78;21.08;101194.38;5058070;28;1106;-19
2023/03/17 07:38:24;;;;;;;;;;;;;;;28.95;20.96;101196.91;5057685;28;1182;-19
2023/03/17 07:40:49;;;;;;;;;;;;;;;29.66;19.96;101194.81;5056542;28;1067;-19
2023/03/17 07:43:15;;;;;;;;;;;;;;;28.46;21.61;101189.03;5057702;28;1101;-19
2023/03/17 07:45:44;;;;;;;;;;;;;;;28.75;21.43;101186.59;5057293;28;1914;-19
2023/03/17 07:48:09;;;;;;;;;;;;;;;28.92;21.02;101184.59;5056684;28;1112;-19
2023/03/17 07:50:35;;;;;;;;;;;;;;;29.46;20.45;101184.53;5057037;28;1095;-20
2023/03/17 07:53:02;;;;;;;;;;;;;;;29.04;20.35;101184.16;5057211;28;1150;-19
2023/03/17 07:55:28;;;;;;;;;;;;;;;27.81;21.37;101183.88;5052706;28;1202;-18
2023/03/17 07:57:53;;;;;;;;;;;;;;;28.80;20.56;101180.63;5056187;28;1062;-19
2023/03/17 08:00:20;;;;;;;;;;;;;;;29.20;19.83;101183.97;5057246;28;1328;-19
2023/03/17 08:02:46;;;;;;;;;;;;;;;29.41;19.51;101193.22;5057182;28;1054;-19
2023/03/17 08:05:12;;;;;;;;;;;;;;;29.52;19.38;101182.94;5051777;28;1914;-19
2023/03/17 08:07:37;;;;;;;;;;;;;;;27.41;20.84;101191.94;5052363;28;1210;-18
2023/03/17 08:10:04;;;;;;;;;;;;;;;26.69;21.96;101185.50;5056676;28;1090;-19
2023/03/17 08:12:29;;;;;;;;;;;;;;;28.75;20.31;101177.63;5056800;28;1202;-18
2023/03/17 08:14:55;;;;;;;;;;;;;;;29.51;19.26;101187.50;5056641;28;1070;-19
2023/03/17 08:17:25;;;;;;;;;;;;;;;29.46;19.25;101190.78;5056611;28;1198;-19
2023/03/17 08:19:51;;;;;;;;;;;;;;;27.50;20.95;101193.63;5051905;28;1090;-19
2023/03/17 08:22:17;;;;;;;;;;;;;;;26.27;22.33;101185.47;5050366;28;1124;-20
2023/03/17 08:24:43;;;;;;;;;;;;;;;28.40;20.24;101188.94;5056853;28;1910;-19
2023/03/17 08:27:08;;;;;;;;;;;;;;;28.62;20.06;101197.22;5046201;28;1088;-19
2023/03/17 08:29:34;;;;;;;;;;;;;;;29.08;19.46;101196.28;5056669;28;1439;-19
2023/03/17 08:32:00;;;;;;;;;;;;;;;29.23;19.38;101209.84;5056684;28;1123;-19
2023/03/17 08:34:25;;;;;;;;;;;;;;;29.02;19.64;101197.91;5056505;28;1050;-19
2023/03/17 08:36:51;;;;;;;;;;;;;;;28.46;19.80;101190.94;5051978;28;1111;-19
2023/03/17 08:39:16;;;;;;;;;;;;;;;26.85;21.96;101193.59;5036458;28;1261;-19
2023/03/17 08:41:42;;;;;;;;;;;;;;;27.88;20.87;101189.41;5051940;28;1032;-19
2023/03/17 08:44:08;;;;;;;;;;;;;;;28.85;19.78;101195.31;5056321;28;1902;-19
2023/03/17 08:46:33;;;;;;;;;;;;;;;28.84;19.38;101207.16;5056094;28;897;-19
2023/03/17 08:48:59;;;;;;;;;;;;;;;26.23;22.27;101195.72;5056331;28;1138;-19
2023/03/17 08:51:25;;;;;;;;;;;;;;;27.39;21.60;101208.34;5055909;28;1134;-19
2023/03/17 08:53:51;;;;;;;;;;;;;;;28.91;19.60;101196.44;5055200;28;1123;-19
2023/03/17 08:56:17;;;;;;;;;;;;;;;29.61;18.77;101208.94;5054353;28;1250;-19
2023/03/17 08:58:42;;;;;;;;;;;;;;;29.90;18.66;101206.34;5052236;28;1333;-19
2023/03/17 09:01:09;;;;;;;;;;;;;;;29.73;18.75;101200.31;5056878;28;1228;-19
2023/03/17 09:03:35;;;;;;;;;;;;;;;29.14;19.02;101182.03;5055966;28;1902;-20
2023/03/17 09:06:03;;;;;;;;;;;;;;;26.76;21.79;101176.53;5056066;28;1147;-20
2023/03/17 09:08:28;;;;;;;;;;;;;;;27.72;21.23;101182.25;5056276;28;1174;-19
2023/03/17 09:10:54;;;;;;;;;;;;;;;29.15;19.42;101183.69;5055723;28;843;-19
2023/03/17 09:13:20;;;;;;;;;;;;;;;29.60;18.64;101185.56;5055325;28;1109;-19
2023/03/17 09:15:46;;;;;;;;;;;;;;;29.76;18.64;101186.38;5056435;28;1194;-19
2023/03/17 09:18:11;;;;;;;;;;;;;;;29.76;18.42;101189.09;5055979;28;1258;-19
2023/03/17 09:20:37;;;;;;;;;;;;;;;29.39;18.41;101189.88;5055459;28;1225;-19
2023/03/17 09:23:09;;;;;;;;;;;;;;;26.99;21.77;101192.03;5055677;28;941;-19
2023/03/17 09:25:35;;;;;;;;;;;;;;;27.88;20.60;101186.72;5054566;28;1977;-19
2023/03/17 09:28:01;;;;;;;;;;;;;;;29.14;19.28;101198.28;5055279;28;1034;-19
2023/03/17 09:30:27;;;;;;;;;;;;;;;29.66;18.55;101184.78;5055216;28;1146;-19
2023/03/17 09:32:52;;;;;;;;;;;;;;;29.82;18.26;101185.63;5055823;28;1095;-19
2023/03/17 09:35:18;;;;;;;;;;;;;;;29.67;18.40;101191.06;5055556;28;956;-19
2023/03/17 09:37:43;;;;;;;;;;;;;;;29.10;18.80;101186.13;5052863;28;1053;-19
2023/03/17 09:40:11;;;;;;;;;;;;;;;27.04;21.44;101190.72;5045143;28;963;-19
2023/03/17 09:42:49;;;;;;;;;;;;;;;27.81;20.40;101175.75;5052976;28;1114;-19
2023/03/17 09:45:20;;;;;;;;;;;;;;;29.39;18.65;101176.31;5055352;28;1906;-19
2023/03/17 09:48:03;;;;;;;;;;;;;;;28.55;19.09;101176.31;5050639;28;1099;-19
2023/03/17 09:50:35;;;;;;;;;;;;;;;26.37;21.61;101180.78;5050351;28;1059;-19
2023/03/17 09:53:00;;;;;;;;;;;;;;;28.30;19.94;101170.22;5056005;28;1143;-19
2023/03/17 09:55:27;;;;;;;;;;;;;;;28.90;18.87;101173.09;5054849;28;1117;-19
2023/03/17 09:57:53;;;;;;;;;;;;;;;29.28;18.57;101174.09;5053716;28;1123;-19
2023/03/17 10:00:25;;;;;;;;;;;;;;;29.64;18.35;101181.47;5054152;28;1031;-20
2023/03/17 10:02:51;;;;;;;;;;;;;;;29.40;18.42;101178.00;5047805;28;1317;-20
2023/03/17 10:05:19;;;;;;;;;;;;;;;27.19;20.88;101172.81;5038271;28;1906;-19
2023/03/17 10:07:54;;;;;;;;;;;;;;;28.03;20.03;101167.03;5040204;28;1174;-20
2023/03/17 10:10:30;;;;;;;;;;;;;;;29.07;19.06;101173.81;5056408;28;1051;-19
2023/03/17 10:12:59;;;;;;;;;;;;;;;26.94;21.30;101174.69;5055331;28;1027;-20
2023/03/17 10:15:34;;;;;;;;;;;;;;;27.08;21.34;101182.09;5058664;28;1126;-19
2023/03/17 10:18:01;;;;;;;;;;;;;;;28.75;19.53;101192.03;5049802;28;1248;-19
2023/03/17 10:20:32;;;;;;;;;;;;;;;29.25;18.49;101183.41;5057698;28;1292;-19
2023/03/17 10:22:58;;;;;;;;;;;;;;;29.45;18.45;101185.53;5056701;28;1044;-19
2023/03/17 10:25:27;;;;;;;;;;;;;;;28.60;19.25;101192.84;5056916;28;1985;-19
2023/03/17 10:28:08;;;;;;;;;;;;;;;27.34;20.72;101186.41;5050398;28;1065;-19
2023/03/17 10:30:34;;;;;;;;;;;;;;;28.62;19.76;101191.81;5055625;28;1054;-19
2023/03/17 10:33:00;;;;;;;;;;;;;;;28.68;19.38;101183.78;5052033;28;1029;-19
2023/03/17 10:35:26;;;;;;;;;;;;;;;27.26;20.89;101199.94;5080486;28;1277;-19
2023/03/17 10:37:52;;;;;;;;;;;;;;;28.35;20.13;101195.75;5059159;28;1273;-19
2023/03/17 10:40:21;;;;;;;;;;;;;;;29.26;19.03;101197.81;5059102;28;1089;-19
2023/03/17 10:42:47;;;;;;;;;;;;;;;29.52;18.67;101201.91;5059484;28;1214;-19
2023/03/17 10:45:13;;;;;;;;;;;;;;;27.92;20.37;101206.13;5057511;28;1898;-19
2023/03/17 10:47:47;;;;;;;;;;;;;;;27.17;21.54;101212.63;5058780;28;1138;-19
2023/03/17 10:50:16;;;;;;;;;;;;;;;28.90;19.73;101188.50;5059026;28;1140;-19
2023/03/17 10:52:41;;;;;;;;;;;;;;;27.79;20.59;101195.91;5058628;28;936;-19
2023/03/17 10:55:09;;;;;;;;;;;;;;;27.49;21.28;101197.31;5058992;28;1055;-19
2023/03/17 10:57:36;;;;;;;;;;;;;;;27.50;20.99;101208.97;5048399;28;1074;-19
2023/03/17 11:00:03;;;;;;;;;;;;;;;27.37;21.54;101199.59;5083727;28;1298;-19
2023/03/17 11:02:30;;;;;;;;;;;;;;;27.55;21.08;101194.94;5059268;28;1162;-19
2023/03/17 11:05:03;;;;;;;;;;;;;;;27.66;21.32;101199.97;5058713;28;1980;-19
2023/03/17 11:07:38;;;;;;;;;;;;;;;27.66;21.08;101197.25;5057397;28;1027;-19
2023/03/17 11:10:05;;;;;;;;;;;;;;;27.65;21.22;101194.72;5058630;28;1100;-19
2023/03/17 11:12:35;;;;;;;;;;;;;;;27.70;21.12;101203.19;5058208;28;836;-19
2023/03/17 11:15:03;;;;;;;;;;;;;;;27.61;21.43;101203.19;5056955;28;1102;-20
2023/03/17 11:17:32;;;;;;;;;;;;;;;27.56;21.60;101200.16;5057393;28;1058;-19
2023/03/17 11:20:04;;;;;;;;;;;;;;;27.54;21.49;101204.06;5057244;28;1063;-19
2023/03/17 11:22:32;;;;;;;;;;;;;;;27.40;21.66;101203.78;5058260;28;1101;-19
2023/03/17 11:24:58;;;;;;;;;;;;;;;27.27;21.83;101198.94;5058304;28;1913;-19
2023/03/17 11:27:27;;;;;;;;;;;;;;;27.16;21.85;101202.81;5057078;28;1129;-19
2023/03/17 11:30:13;;;;;;;;;;;;;;;27.74;21.54;101208.06;5058161;28;1031;-19
2023/03/17 11:32:39;;;;;;;;;;;;;;;28.91;20.19;101191.00;5043501;28;1414;-19
2023/03/17 11:35:08;;;;;;;;;;;;;;;29.13;19.88;101195.75;5057947;28;1210;-19
2023/03/17 11:37:33;;;;;;;;;;;;;;;29.27;19.73;101196.78;5045032;28;1451;-19
2023/03/17 11:40:01;;;;;;;;;;;;;;;27.69;21.15;101194.25;5057980;28;1232;-19
2023/03/17 11:42:31;;;;;;;;;;;;;;;27.36;21.75;101181.69;5058264;28;1101;-19
2023/03/17 11:45:15;;;;;;;;;;;;;;;29.03;19.91;101179.78;5056724;28;1909;-19
2023/03/17 11:47:47;;;;;;;;;;;;;;;27.58;21.42;101184.63;5054048;28;1352;-19
2023/03/17 11:50:22;;;;;;;;;;;;;;;27.19;21.70;101186.31;5057844;28;1094;-19
2023/03/17 11:52:57;;;;;;;;;;;;;;;29.02;19.85;101176.22;5057983;28;1039;-19
2023/03/17 11:55:23;;;;;;;;;;;;;;;29.42;19.50;101166.97;5057391;28;1043;-19
2023/03/17 11:57:54;;;;;;;;;;;;;;;28.92;19.67;101165.63;5056599;28;1148;-19
2023/03/17 12:00:26;;;;;;;;;;;;;;;27.19;21.58;101175.50;5056364;28;1249;-19
2023/03/17 12:03:10;;;;;;;;;;;;;;;28.31;20.72;101164.63;5043152;28;1098;-20
2023/03/17 12:05:36;;;;;;;;;;;;;;;28.71;20.20;101167.19;5057405;28;1914;-19
2023/03/17 12:08:02;;;;;;;;;;;;;;;27.32;21.78;101177.66;5057222;28;1007;-19
2023/03/17 12:10:36;;;;;;;;;;;;;;;28.36;21.05;101167.66;5057433;28;1066;-19
2023/03/17 12:13:05;;;;;;;;;;;;;;;29.48;19.48;101168.91;5056129;28;888;-19
2023/03/17 12:15:37;;;;;;;;;;;;;;;29.72;19.20;101171.50;5057698;28;1167;-19
2023/03/17 12:18:31;;;;;;;;;;;;;;;28.05;20.70;101170.38;5057150;28;1131;-19
2023/03/17 12:21:00;;;;;;;;;;;;;;;26.97;21.82;101172.47;5071400;28;1139;-19
2023/03/17 12:23:37;;;;;;;;;;;;;;;29.00;20.08;101169.28;5056788;28;1229;-19
2023/03/17 12:26:05;;;;;;;;;;;;;;;27.99;20.50;101156.56;5056020;28;1135;-19
2023/03/17 12:28:51;;;;;;;;;;;;;;;27.04;21.98;101169.13;5055683;28;1166;-20
2023/03/17 12:31:21;;;;;;;;;;;;;;;28.81;20.29;101168.81;5057036;28;1113;-19
2023/03/17 12:33:47;;;;;;;;;;;;;;;29.24;19.77;101164.63;5055746;28;1127;-20
2023/03/17 12:36:16;;;;;;;;;;;;;;;29.23;19.71;101158.38;5056785;28;1122;-19
2023/03/17 12:38:52;;;;;;;;;;;;;;;27.23;21.72;101168.72;5055576;28;1277;-19
2023/03/17 12:41:22;;;;;;;;;;;;;;;27.52;21.73;101158.31;5055671;28;1250;-19
2023/03/17 12:43:48;;;;;;;;;;;;;;;29.16;19.77;101157.47;5055391;28;1922;-19
2023/03/17 12:46:28;;;;;;;;;;;;;;;27.99;20.76;101155.72;5056302;28;1040;-25